Forum - i mitici sud

tutti gli utenti del gruppo possono partecipare le discussione con riferimento a sesso o non conforme a chatta.it verranno imossi

Amministratore
FCFranco 22/08/2016 ore 10:27 Quota

(nessuno) Nowcasting Lunedì 22 Agosto 2016

Buongiorno a tutti


Notizie Meteo dell'Italia da il Meteo .It


http://ilMeteo.It


la Situazione Italiana vista dal Sat








il Radar Europeo









Brindisi

METAR LIBR 220645Z 32006KT 9999 FEW025 27/22 Q1014 NOSIG RMK FEW VIS MIN 9999 WIND THR13 /////KT WIND THR31 32006KT BLU=

Metar di Brindisi del 22 alle 6,45z

Vento da 320° N NW 6 nodi (11,112 km) Visibilità 10000 m
Copertura 1-2 ottavi da 2500 piedi (762 m)
Temp 27°C Dew 22°C Ur 73% hPa 1014
Nuvolosità 1-2 ottavi
Visibilità Minima 10000 m

Brindisi

TAF LIBR 220500Z 2206/2306 24006KT CAVOK BECMG 2206/2208 9999 SCT020 SCT050 BECMG 2208/2210 33010KT TEMPO 2212/2218 32010G20KT RA SCT015 BKN050 BECMG 2218/2220 CAVOK=

le TAF di Brindisi delle 5z Previsioni dalle 6z alle 6z del 23

Vento da 240° W SW 6 nodi (11,112 km) Visibilità 10000 m
Base delle Nubi e Visibilità OK
le Condizioni Diverranno fra le 6z e le 8z
Visibilità 10000 m
Copertura 3-4 ottavi da 2000 piedi (609,6 m)
Copertura 3-4 ottavi da 5000 piedi (1524 m)
le Condizioni Diverranno fra le 8z e le 10z
Vento da 330° N NW 10 nodi (18,52 km)
il Tempo Varierà dalle 12z alle 18z
Vento da 320° N NW 10 nodi (18,52
Raffiche da 20 nodi (37,04 km) , Pioggia
Copertura 3-4 ottavi da 1500 piedi (457,2 m)
Copertura 5-7 ottavi da 5000 piedi (1524 m)
le Condizioni Diverranno fra le 18z e le 20z
Visibilità 10000 m
Base delle Nubi e Visibilità OK


Gioia del Colle

METAR LIBV 220655Z 34014KT 9999 SCT015 23/21 Q1016 RMK SCT VIS MIN 9999 WIND THR32 35017KT WIND THR14 34016KT BLU=

Metar di Gioia del Colle del 22 alle 6,55z

Vento da 340° N NW 14 nodi (25,928 km) Visibilità 10000 m
Copertura 3-4 ottavi da 1500 piedi (457,2 m)
Temp 23°C Dew 21°C Ur 83% hPa 1016
Nuvolosità a 3-4 ottavi
Visibilità Minima 10000 m

Gioia del Colle

TAF LIBV 220500Z 2206/2215 23006KT CAVOK BECMG 2207/2209 33006KT 9999 SCT020 SCT050 TEMPO 2212/2215 RA=

le TAF di Gioia del Colle delle 5z Previsioni dalle 6z alle 15z

Vento da 230° W SW 6 nodi (11,112 km) Visibilità 10000 m
Base delle Nubi e Visibilità OK
le Condizioni Diverranno fra le 7z e le 9z
Vento da 350° N NW 6 nodi (11,112 km) Visibilità 10000 m
Copertura 3-4 ottavi da 2000 piedi (609,6 m)
Copertura 3-4 ottavi da 5000 piedi (1524 m)
il Tempo Varierà dalle 12z alle 15z
Pioggia
2249178
Buongiorno a tutti Notizie Meteo dell'Italia da il Meteo .It http://ilMeteo.It la Situazione Italiana vista dal Sat « immagine »...
Discussione
22/08/2016 10:27:16
none
  • mi piace
    iLikeIt
    PublicVote

Vuoi partecipare anche tu a questa discussione?

Rispondi per lasciare il tuo messaggio in questa discussione